Terminal Aerodrome Forecast
Issued by NWS

Home | Current Version | Previous Version | Graphics & Text | Print | Product List | Glossary On
Versions: 1 2 3 4 5 6 7 8 9 10 11 12 13 14 15 16 17 18 19 20 21 22 23
000
FTUS43 KGRB 181132
TAFRHI
TAF
KRHI 181132Z 1812/1912 15005KT P6SM BKN080
     FM181700 17016G25KT P6SM -SN SCT040 OVC070 WS020/19055KT
      TEMPO 1818/1822 4SM -SN BKN040
     FM182200 20011G17KT P6SM OVC060 WS020/22050KT
     FM190600 25004KT P6SM OVC040
     FM190800 34005KT 6SM -FZRASN OVC025
     FM191000 02006KT 4SM -FZRASN OVC012=

USA.gov is the U.S. government's official web portal to all federal, state and local government web resources and services.